Time;durP1;ratioP1;P1;durP2;ratioP2;P2;SDS_P1;SDS_P2;PMS_P1;PMS_P2;Temp;Humidity;BMP_temperature;BMP_pressure;BME280_temperature;BME280_humidity;BME280_pressure;Samples;Min_cycle;Max_cycle;Signal;HPM_P1;HPM_P2
2021/03/25 00:01:26;;;;;;;2.58;1.95;;;;;;;20.60;43.32;100944.48;1806056;78;20998;-62
2021/03/25 00:03:54;;;;;;;2.92;2.10;;;;;;;20.61;43.34;100949.70;1795083;78;21157;-62
2021/03/25 00:06:23;;;;;;;2.87;2.33;;;;;;;20.64;43.30;100946.30;1750989;80;21154;-62
2021/03/25 00:08:49;;;;;;;2.87;2.22;;;;;;;20.68;43.28;100947.87;1819148;78;21408;-62
2021/03/25 00:11:16;;;;;;;3.05;2.37;;;;;;;20.68;43.19;100941.77;1813907;78;21266;-62
2021/03/25 00:13:42;;;;;;;3.77;2.42;;;;;;;20.66;43.15;100946.82;1759999;80;21195;-62
2021/03/25 00:16:08;;;;;;;3.17;2.20;;;;;;;20.63;43.19;100942.46;1761522;80;21148;-62
2021/03/25 00:18:36;;;;;;;3.27;2.37;;;;;;;20.62;43.20;100942.23;1754573;79;21116;-62
2021/03/25 00:21:05;;;;;;;3.98;2.72;;;;;;;20.63;43.20;100946.05;1728297;82;21150;-62
2021/03/25 00:23:32;;;;;;;2.40;2.02;;;;;;;20.66;43.17;100944.62;1755388;81;21324;-62
2021/03/25 00:25:58;;;;;;;3.95;2.75;;;;;;;20.67;43.11;100948.43;1742678;81;21003;-62
2021/03/25 00:28:25;;;;;;;2.60;2.30;;;;;;;20.65;43.06;100947.94;1740677;81;21158;-62
2021/03/25 00:30:51;;;;;;;3.70;2.58;;;;;;;20.61;43.08;100945.56;1755414;81;21224;-62
2021/03/25 00:33:18;;;;;;;3.25;2.65;;;;;;;20.60;43.09;100941.16;1713718;82;21439;-62
2021/03/25 00:36:05;;;;;;;3.30;2.50;;;;;;;20.63;43.10;100943.84;1754461;81;21449;-63
2021/03/25 00:38:32;;;;;;;3.35;2.77;;;;;;;20.64;43.07;100941.34;1679563;84;22163;-62
2021/03/25 00:40:58;;;;;;;3.75;2.72;;;;;;;20.65;43.03;100936.88;1683333;84;21555;-62
2021/03/25 00:43:25;;;;;;;2.98;2.60;;;;;;;20.62;42.98;100938.91;1678684;84;21180;-62
2021/03/25 00:45:51;;;;;;;4.12;2.80;;;;;;;20.58;43.00;100942.02;1680775;84;21200;-63
2021/03/25 00:48:21;;;;;;;2.83;2.52;;;;;;;20.58;43.00;100942.61;1670138;85;21600;-63
2021/03/25 00:50:54;;;;;;;4.12;3.25;;;;;;;20.60;43.02;100943.09;1677584;84;21275;-62
2021/03/25 00:53:24;;;;;;;3.60;3.30;;;;;;;20.62;43.00;100936.70;1677876;85;21209;-62
2021/03/25 00:55:51;;;;;;;4.53;3.08;;;;;;;20.64;42.93;100942.72;1679822;84;21685;-62
2021/03/25 00:58:18;;;;;;;3.35;3.05;;;;;;;20.61;42.92;100935.88;1676230;84;21276;-62
2021/03/25 01:00:45;;;;;;;4.55;3.27;;;;;;;20.58;42.90;100940.63;1686186;84;21137;-62
2021/03/25 01:03:13;;;;;;;3.45;2.92;;;;;;;20.55;42.95;100938.51;1680130;84;22108;-63
2021/03/25 01:05:39;;;;;;;4.45;3.50;;;;;;;20.57;42.96;100939.59;1680202;85;21589;-62
2021/03/25 01:08:07;;;;;;;4.78;3.65;;;;;;;20.59;42.93;100933.98;1677429;84;21546;-62
2021/03/25 01:10:43;;;;;;;3.58;3.22;;;;;;;20.60;42.89;100935.63;1686003;84;21197;-62
2021/03/25 01:13:15;;;;;;;4.22;3.50;;;;;;;20.59;42.86;100941.45;1661670;85;21169;-62
2021/03/25 01:15:41;;;;;;;4.03;3.47;;;;;;;20.54;42.84;100943.78;1673907;84;21233;-62
2021/03/25 01:18:08;;;;;;;4.20;3.33;;;;;;;20.54;42.89;100948.52;1646712;84;21604;-63
2021/03/25 01:20:38;;;;;;;4.70;3.60;;;;;;;20.55;42.91;100944.59;1673978;84;21410;-62
2021/03/25 01:23:04;;;;;;;3.95;3.55;;;;;;;20.60;42.91;100947.24;1691594;84;21208;-63
2021/03/25 01:25:31;;;;;;;4.60;3.65;;;;;;;20.65;42.88;100941.59;1641765;85;21601;-61
2021/03/25 01:28:02;;;;;;;4.42;4.03;;;;;;;20.68;42.84;100947.87;1676707;84;21230;-62
2021/03/25 01:30:30;;;;;;;3.70;3.33;;;;;;;20.69;42.81;100948.13;1683047;84;21026;-62
2021/03/25 01:32:57;;;;;;;3.75;3.27;;;;;;;20.71;42.80;100947.27;1677868;84;21180;-62
2021/03/25 01:35:24;;;;;;;3.95;3.55;;;;;;;20.75;42.82;100948.27;1675067;83;21394;-62
2021/03/25 01:37:50;;;;;;;4.62;4.22;;;;;;;20.80;42.78;100946.73;1632990;86;21207;-62
2021/03/25 01:40:36;;;;;;;6.00;4.67;;;;;;;20.86;42.73;100953.21;1641731;86;21546;-62
2021/03/25 01:43:27;;;;;;;4.33;3.92;;;;;;;20.89;42.69;100950.37;1620105;87;21153;-63
2021/03/25 01:46:06;;;;;;;4.87;4.10;;;;;;;20.89;42.65;100958.10;1633755;87;21206;-62
2021/03/25 01:48:38;;;;;;;4.05;3.65;;;;;;;20.90;42.67;100959.74;1629361;86;21555;-62
2021/03/25 01:51:26;;;;;;;4.60;4.03;;;;;;;20.93;42.68;100963.25;1645058;86;21206;-62
2021/03/25 01:54:37;;;;;;;4.47;3.72;;;;;;;20.98;42.65;100968.66;1646352;85;21209;-62
2021/03/25 01:57:14;;;;;;;5.33;4.60;;;;;;;21.05;42.61;100974.32;1661443;86;21157;-62
2021/03/25 01:59:58;;;;;;;5.05;4.20;;;;;;;21.06;42.54;100963.48;1645098;86;21259;-62
2021/03/25 02:02:49;;;;;;;4.40;3.58;;;;;;;21.05;42.55;100967.41;1641408;86;21174;-62
2021/03/25 02:05:46;;;;;;;5.10;4.55;;;;;;;21.07;42.58;100970.66;1646122;86;21172;-62
2021/03/25 02:08:45;;;;;;;4.35;3.95;;;;;;;21.10;42.56;100974.98;1631878;86;21484;-63
2021/03/25 02:11:39;;;;;;;4.90;4.40;;;;;;;21.15;42.51;100976.83;1645276;86;21162;-63
2021/03/25 02:14:32;;;;;;;4.75;4.03;;;;;;;21.16;42.47;100978.47;1643844;86;21177;-64
2021/03/25 02:17:16;;;;;;;5.37;4.72;;;;;;;21.14;42.46;100984.31;1644265;86;21222;-62
2021/03/25 02:20:11;;;;;;;4.53;4.12;;;;;;;21.14;42.49;100984.88;1647121;86;21581;-63
2021/03/25 02:23:13;;;;;;;5.47;4.85;;;;;;;21.17;42.48;100987.03;1641791;86;22210;-63
2021/03/25 02:25:50;;;;;;;5.55;4.95;;;;;;;21.21;42.46;100988.84;1645898;87;21161;-63
2021/03/25 02:29:00;;;;;;;6.00;5.05;;;;;;;21.22;42.39;100986.31;1636667;87;21142;-62
2021/03/25 02:31:34;;;;;;;4.42;4.00;;;;;;;21.22;42.38;100986.88;1627098;87;21449;-62
2021/03/25 02:34:06;;;;;;;4.85;4.37;;;;;;;21.21;42.40;100983.88;1622685;86;21229;-63
2021/03/25 02:36:56;;;;;;;5.87;5.30;;;;;;;21.23;42.42;100984.36;1638587;87;21210;-63
2021/03/25 02:39:33;;;;;;;5.83;5.22;;;;;;;21.25;42.41;100987.08;1666588;85;21031;-63
2021/03/25 02:42:00;;;;;;;5.87;5.28;;;;;;;21.28;42.35;100982.84;1675396;84;21177;-63
2021/03/25 02:44:31;;;;;;;5.60;5.00;;;;;;;21.29;42.33;100988.64;1637423;85;21185;-64
2021/03/25 02:47:08;;;;;;;4.92;4.42;;;;;;;21.28;42.34;100982.84;1666328;85;21485;-63
2021/03/25 02:49:49;;;;;;;5.85;4.75;;;;;;;21.29;42.35;100983.10;1672081;85;21288;-63
2021/03/25 02:52:24;;;;;;;5.10;4.60;;;;;;;21.34;42.34;100982.97;1673827;85;21154;-62
2021/03/25 02:54:51;;;;;;;5.92;5.15;;;;;;;21.37;42.30;100977.61;1677885;85;21145;-63
2021/03/25 02:57:32;;;;;;;5.58;4.78;;;;;;;21.39;42.27;100978.09;1643497;86;21219;-62
2021/03/25 03:00:02;;;;;;;5.47;4.75;;;;;;;21.39;42.24;100980.04;1651296;86;21183;-63
2021/03/25 03:02:36;;;;;;;5.58;4.95;;;;;;;21.39;42.26;100976.70;1646510;85;21603;-64
2021/03/25 03:05:19;;;;;;;5.85;5.20;;;;;;;21.43;42.26;100980.47;1623599;86;21193;-63
2021/03/25 03:08:01;;;;;;;6.03;5.33;;;;;;;21.49;42.20;100979.77;1665503;84;21495;-62
2021/03/25 03:10:35;;;;;;;5.85;5.25;;;;;;;21.52;42.15;100980.51;1677208;84;21651;-62
2021/03/25 03:13:02;;;;;;;6.67;5.50;;;;;;;21.51;42.10;100976.13;1674330;84;21157;-63
2021/03/25 03:15:48;;;;;;;5.28;4.78;;;;;;;21.49;42.10;100972.84;1675559;83;21453;-63
2021/03/25 03:18:30;;;;;;;5.22;4.67;;;;;;;21.50;42.13;100978.64;1668302;84;21622;-63
2021/03/25 03:21:03;;;;;;;5.87;5.17;;;;;;;21.53;42.12;100973.84;1649458;85;21192;-63
2021/03/25 03:23:30;;;;;;;6.05;5.45;;;;;;;21.57;42.09;100977.60;1620971;87;21259;-63
2021/03/25 03:25:58;;;;;;;6.72;5.65;;;;;;;21.61;42.02;100983.31;1642357;86;21189;-63
2021/03/25 03:28:32;;;;;;;6.40;5.17;;;;;;;21.60;41.98;100985.26;1650352;86;21178;-63
2021/03/25 03:31:03;;;;;;;5.97;4.70;;;;;;;21.60;41.97;100984.47;1646801;86;21208;-63
2021/03/25 03:33:35;;;;;;;;;;;;;;;21.61;42.00;100983.31;1653100;86;21157;-63
2021/03/25 03:36:06;;;;;;;6.95;6.25;;;;;;;21.64;41.97;100989.02;1668104;84;20475;-63
2021/03/25 03:38:43;;;;;;;6.42;5.78;;;;;;;21.67;41.97;100991.73;1674659;84;21137;-63
2021/03/25 03:41:12;;;;;;;6.75;5.72;;;;;;;21.68;41.90;100988.66;1673973;85;22279;-63
2021/03/25 03:43:39;;;;;;;6.30;5.65;;;;;;;21.67;41.86;100988.41;1674169;84;21193;-63
2021/03/25 03:46:13;;;;;;;6.65;5.90;;;;;;;21.65;41.88;100985.13;1675462;85;21160;-63
2021/03/25 03:48:53;;;;;;;6.45;5.85;;;;;;;21.65;41.89;100985.69;1674293;84;21598;-62
2021/03/25 03:51:32;;;;;;;6.53;5.85;;;;;;;21.67;41.86;100989.78;1672177;84;21141;-64
2021/03/25 03:54:00;;;;;;;7.92;5.87;;;;;;;21.68;41.83;100990.04;1675826;84;21445;-63
2021/03/25 03:56:35;;;;;;;7.42;6.70;;;;;;;21.68;41.77;100992.81;1669722;84;21190;-62
2021/03/25 03:59:06;;;;;;;7.12;6.12;;;;;;;21.65;41.75;100993.99;1683440;84;21584;-62
2021/03/25 04:01:45;;;;;;;6.90;6.20;;;;;;;21.64;41.77;100999.30;1675293;84;21564;-63
2021/03/25 04:04:25;;;;;;;6.75;5.97;;;;;;;21.63;41.79;100997.10;1676629;85;21177;-63
2021/03/25 04:06:58;;;;;;;6.90;6.08;;;;;;;21.65;41.75;100994.81;1671634;84;21300;-63
2021/03/25 04:09:32;;;;;;;7.33;6.55;;;;;;;21.65;41.71;100998.15;1674613;84;21612;-63
2021/03/25 04:12:04;;;;;;;6.72;6.03;;;;;;;21.61;41.68;100996.59;1676938;85;21185;-62
2021/03/25 04:14:47;;;;;;;6.78;6.08;;;;;;;21.58;41.69;100998.63;1679491;84;21169;-63
2021/03/25 04:17:19;;;;;;;7.85;7.05;;;;;;;21.58;41.68;101006.11;1670132;85;21170;-63
2021/03/25 04:19:47;;;;;;;7.80;6.80;;;;;;;21.58;41.66;101002.78;1678531;84;21603;-64
2021/03/25 04:22:21;;;;;;;7.00;6.25;;;;;;;21.57;41.63;101012.21;1674694;84;21185;-63
2021/03/25 04:24:55;;;;;;;6.65;5.87;;;;;;;21.55;41.60;101021.42;1675924;85;21627;-63
2021/03/25 04:27:53;;;;;;;7.15;6.45;;;;;;;21.55;41.59;101012.30;1826990;76;23066;-63
2021/03/25 04:30:43;;;;;;;6.80;6.12;;;;;;;21.50;41.61;101014.63;1789742;79;21469;-63
2021/03/25 04:33:15;;;;;;;6.65;6.03;;;;;;;21.50;41.59;101013.25;1796190;79;21353;-63
2021/03/25 04:35:43;;;;;;;7.72;6.78;;;;;;;21.51;41.56;101011.30;1815611;78;21052;-62
2021/03/25 04:38:27;;;;;;;8.33;7.15;;;;;;;21.49;41.50;101019.91;1804964;79;21244;-64
2021/03/25 04:40:57;;;;;;;7.72;6.80;;;;;;;21.45;41.50;101023.06;1785289;79;20960;-63
2021/03/25 04:43:23;;;;;;;8.30;7.08;;;;;;;21.41;41.52;101017.92;1734904;82;20988;-63
2021/03/25 04:46:23;;;;;;;7.80;7.00;;;;;;;21.43;41.53;101020.38;1753824;81;21204;-63
2021/03/25 04:48:49;;;;;;;7.83;6.87;;;;;;;21.44;41.51;101028.34;1734650;81;21401;-61
2021/03/25 04:51:19;;;;;;;8.38;7.45;;;;;;;21.44;41.46;101028.34;1790057;79;21479;-62
2021/03/25 04:53:46;;;;;;;8.83;7.92;;;;;;;21.41;41.44;101026.22;1786929;79;21185;-62
2021/03/25 04:56:19;;;;;;;8.45;7.20;;;;;;;21.36;41.43;101031.33;1740563;80;21145;-62
2021/03/25 04:58:55;;;;;;;8.35;7.45;;;;;;;21.34;41.49;101026.66;1765761;81;21205;-62
2021/03/25 05:01:24;;;;;;;8.68;7.80;;;;;;;21.36;41.48;101029.13;1735296;81;21122;-62
2021/03/25 05:04:00;;;;;;;8.63;7.50;;;;;;;21.42;41.46;101036.17;1746853;81;21134;-63
2021/03/25 05:06:48;;;;;;;8.95;7.45;;;;;;;21.45;41.43;101036.09;1714563;82;21592;-63
2021/03/25 05:09:21;;;;;;;8.28;7.22;;;;;;;21.45;41.41;101031.94;1731470;81;21173;-63
2021/03/25 05:11:48;;;;;;;8.03;7.17;;;;;;;21.44;41.42;101042.19;1753910;81;21275;-64
2021/03/25 05:14:26;;;;;;;7.35;6.53;;;;;;;21.46;41.43;101038.55;1762998;80;20975;-63
2021/03/25 05:17:21;;;;;;;8.25;7.08;;;;;;;21.51;41.40;101045.91;1750689;82;21157;-63
2021/03/25 05:19:55;;;;;;;8.03;7.03;;;;;;;21.57;41.39;101055.13;1732674;81;21604;-64
2021/03/25 05:23:04;;;;;;;7.97;7.17;;;;;;;21.60;41.33;101051.71;1802089;79;21086;-63
2021/03/25 05:25:51;;;;;;;8.60;6.72;;;;;;;21.60;41.27;101050.92;1711236;79;21299;-62
2021/03/25 05:28:23;;;;;;;8.98;6.58;;;;;;;21.60;41.28;101053.69;1804021;79;21162;-64
2021/03/25 05:30:50;;;;;;;8.58;7.58;;;;;;;21.63;41.28;101062.73;1796659;79;21024;-63
2021/03/25 05:33:21;;;;;;;7.72;6.78;;;;;;;21.66;41.26;101062.91;1786245;79;21165;-61
2021/03/25 05:35:56;;;;;;;;;;;;;;;21.69;41.24;101065.03;1798298;77;21134;-59
2021/03/25 05:38:22;;;;;;;8.48;5.92;;;;;;;21.70;41.24;101065.85;1796110;79;21198;-59
2021/03/25 05:40:59;;;;;;;8.25;5.55;;;;;;;21.71;41.20;101064.72;1770969;79;21136;-59
2021/03/25 05:43:50;;;;;;;7.50;4.95;;;;;;;21.75;41.09;101063.77;1767799;79;21179;-62
2021/03/25 05:47:12;;;;;;;6.97;4.87;;;;;;;21.81;41.07;101072.17;1803241;79;21153;-62
2021/03/25 05:49:58;;;;;;;8.63;5.65;;;;;;;21.90;40.99;101076.95;1790511;79;21163;-60
2021/03/25 05:52:45;;;;;;;7.53;5.42;;;;;;;21.95;40.85;101079.02;1772949;80;21199;-63
2021/03/25 05:56:08;;;;;;;7.28;5.15;;;;;;;21.95;40.77;101083.18;1775517;80;22229;-62
2021/03/25 05:59:04;;;;;;;7.55;5.08;;;;;;;21.97;40.75;101085.64;1795412;79;21161;-61
2021/03/25 06:01:39;;;;;;;6.72;5.47;;;;;;;22.02;40.71;101084.94;1789931;79;21110;-61
2021/03/25 06:04:19;;;;;;;8.35;5.87;;;;;;;22.06;40.67;101083.16;1750291;80;21424;-60
2021/03/25 06:07:03;;;;;;;10.25;6.28;;;;;;;22.06;40.56;101092.04;1757835;80;22115;-61
2021/03/25 06:10:11;;;;;;;6.53;4.40;;;;;;;22.04;40.56;101095.69;1784994;79;21120;-60
2021/03/25 06:13:00;;;;;;;7.58;5.10;;;;;;;22.04;40.58;101089.58;1739802;81;21566;-60
2021/03/25 06:15:48;;;;;;;8.60;5.42;;;;;;;22.08;40.58;101091.95;1755050;81;21487;-61
2021/03/25 06:18:46;;;;;;;9.33;5.67;;;;;;;22.12;40.55;101094.89;1786502;80;21228;-61
2021/03/25 06:21:41;;;;;;;12.53;8.20;;;;;;;22.12;40.54;101098.48;1755353;81;21222;-60
2021/03/25 06:24:36;;;;;;;14.65;8.75;;;;;;;22.08;40.53;101093.91;1746578;81;21915;-60
2021/03/25 06:27:35;;;;;;;15.32;9.98;;;;;;;22.06;40.57;101108.66;1753549;81;21168;-61
2021/03/25 06:30:16;;;;;;;16.57;12.10;;;;;;;22.07;40.61;101106.94;1751823;81;21179;-60
2021/03/25 06:33:04;;;;;;;;;;;;;;;22.10;40.67;101115.20;1740598;81;21236;-62
2021/03/25 06:35:46;;;;;;;22.05;14.15;;;;;;;22.11;40.73;101116.24;1737825;80;21253;-60
2021/03/25 06:38:35;;;;;;;21.70;13.70;;;;;;;22.12;40.79;101112.91;1751868;79;21188;-60
2021/03/25 06:41:09;;;;;;;19.27;12.85;;;;;;;22.13;40.85;101118.14;1803534;77;21167;-60
2021/03/25 06:43:59;;;;;;;18.50;11.15;;;;;;;22.16;40.93;101119.44;1799985;77;21161;-61
2021/03/25 06:46:33;;;;;;;17.65;12.58;;;;;;;22.21;41.04;101113.75;1808274;78;21153;-61
2021/03/25 06:49:03;;;;;;;18.82;12.63;;;;;;;22.25;41.06;101119.73;1804622;77;22179;-61
2021/03/25 06:51:32;;;;;;;18.15;12.10;;;;;;;22.25;41.10;101121.67;1795302;78;21157;-60
2021/03/25 06:54:16;;;;;;;18.35;12.07;;;;;;;22.23;41.17;101114.27;1753056;81;21162;-60
2021/03/25 06:56:45;;;;;;;14.75;10.15;;;;;;;22.24;41.25;101117.27;1763843;80;21149;-60
2021/03/25 06:59:33;;;;;;;19.92;12.05;;;;;;;22.30;41.31;101121.53;1777320;79;21225;-59
2021/03/25 07:02:19;;;;;;;18.37;11.03;;;;;;;22.33;41.35;101117.55;1744759;81;21336;-59
2021/03/25 07:04:49;;;;;;;16.37;10.40;;;;;;;22.38;41.33;101120.74;1755707;81;21133;-59
2021/03/25 07:07:21;;;;;;;18.90;10.88;;;;;;;22.38;41.36;101119.36;1809080;77;21384;-60
2021/03/25 07:09:47;;;;;;;16.17;11.08;;;;;;;22.37;41.40;101121.87;1810404;77;21553;-59
2021/03/25 07:12:25;;;;;;;18.48;8.95;;;;;;;22.38;41.46;101132.39;1800895;77;21895;-58
2021/03/25 07:14:51;;;;;;;14.05;9.73;;;;;;;22.41;41.51;101124.81;1804860;77;22243;-61
2021/03/25 07:17:37;;;;;;;16.12;9.88;;;;;;;22.46;41.50;101129.65;1800878;77;21418;-60
2021/03/25 07:20:26;;;;;;;14.40;8.73;;;;;;;22.50;41.49;101125.09;1804576;77;21543;-62
2021/03/25 07:23:07;;;;;;;13.60;9.28;;;;;;;22.50;41.48;101120.93;1808219;77;21193;-63
2021/03/25 07:25:41;;;;;;;16.87;9.95;;;;;;;22.48;41.49;101129.34;1804665;77;21168;-63
2021/03/25 07:28:17;;;;;;;11.70;7.87;;;;;;;22.50;41.53;101126.47;1760239;80;21196;-61
2021/03/25 07:30:50;;;;;;;13.55;7.87;;;;;;;22.53;41.55;101126.42;1789610;78;21169;-62
2021/03/25 07:33:19;;;;;;;12.40;8.63;;;;;;;22.57;41.51;101131.56;1804537;78;21733;-60
2021/03/25 07:35:52;;;;;;;13.88;8.90;;;;;;;22.59;41.46;101134.25;1757432;79;21156;-61
2021/03/25 07:38:32;;;;;;;12.00;7.95;;;;;;;22.55;41.47;101133.26;1777013;78;21132;-60
2021/03/25 07:41:22;;;;;;;10.80;8.05;;;;;;;22.52;41.51;101131.14;1763255;79;21317;-63
2021/03/25 07:44:02;;;;;;;12.20;7.83;;;;;;;22.53;41.55;101134.73;1803480;77;21119;-62
2021/03/25 07:46:39;;;;;;;11.53;8.05;;;;;;;22.55;41.57;101133.26;1800123;79;21026;-62
2021/03/25 07:49:18;;;;;;;10.78;7.53;;;;;;;22.53;41.54;101129.98;1736705;81;21158;-62
2021/03/25 07:51:54;;;;;;;11.43;7.80;;;;;;;22.52;41.55;101138.64;1790895;79;21213;-61
2021/03/25 07:54:33;;;;;;;11.68;7.53;;;;;;;22.47;41.63;101139.61;1742799;81;21332;-61
2021/03/25 07:57:14;;;;;;;10.38;7.35;;;;;;;22.43;41.67;101140.57;1811910;78;21198;-61
2021/03/25 07:59:46;;;;;;;15.35;7.30;;;;;;;22.42;41.71;101139.75;1812917;78;21100;-63
2021/03/25 08:02:34;;;;;;;12.73;7.90;;;;;;;22.42;41.74;101141.70;1807152;77;21264;-66
2021/03/25 08:05:25;;;;;;;10.32;6.87;;;;;;;22.41;41.75;101142.27;1803255;77;21185;-66
2021/03/25 08:07:53;;;;;;;10.10;6.77;;;;;;;22.38;41.83;101139.33;1803023;77;21248;-66
2021/03/25 08:10:40;;;;;;;12.15;6.85;;;;;;;22.33;41.91;101129.20;1800431;77;21879;-66
2021/03/25 08:13:18;;;;;;;9.50;6.20;;;;;;;22.30;41.96;101141.76;1807917;78;21125;-67
2021/03/25 08:16:06;;;;;;;8.90;6.75;;;;;;;22.32;42.04;101137.26;1803483;77;21177;-66
2021/03/25 08:19:14;;;;;;;10.30;6.37;;;;;;;22.32;42.02;101138.64;1762366;79;22123;-65
2021/03/25 08:22:07;;;;;;;9.73;6.22;;;;;;;22.30;42.02;101131.23;1810112;78;21646;-66
2021/03/25 08:25:03;;;;;;;10.30;6.40;;;;;;;22.23;42.04;101131.72;1804252;77;21209;-65
2021/03/25 08:27:41;;;;;;;9.55;6.10;;;;;;;22.22;42.08;101134.80;1809526;77;21173;-65
2021/03/25 08:30:36;;;;;;;9.10;5.50;;;;;;;22.20;42.11;101139.83;1748594;80;21243;-65
2021/03/25 08:33:31;;;;;;;9.30;6.15;;;;;;;22.22;42.11;101133.41;1748029;81;21186;-65
2021/03/25 08:36:22;;;;;;;8.33;5.87;;;;;;;22.20;42.10;101129.56;1755774;80;21267;-65
2021/03/25 08:39:40;;;;;;;8.70;5.33;;;;;;;22.17;42.08;101129.39;1755547;79;20986;-66
2021/03/25 08:42:21;;;;;;;6.85;4.65;;;;;;;22.14;42.14;101135.59;1746763;80;21249;-64
2021/03/25 08:44:59;;;;;;;8.73;5.08;;;;;;;22.12;42.15;101126.20;1748962;79;21241;-65
2021/03/25 08:47:38;;;;;;;7.85;5.08;;;;;;;22.14;42.15;101123.94;1761788;79;21217;-65
2021/03/25 08:50:21;;;;;;;8.20;5.58;;;;;;;22.14;42.13;101122.55;1757668;79;21220;-65
2021/03/25 08:52:48;;;;;;;8.13;5.12;;;;;;;22.11;42.10;101123.17;1759991;79;22217;-65
2021/03/25 08:55:36;;;;;;;7.87;5.20;;;;;;;22.09;42.11;101123.25;1739911;80;21204;-66
2021/03/25 08:58:20;;;;;;;7.90;4.95;;;;;;;22.08;42.13;101125.20;1737865;80;21091;-66
2021/03/25 09:00:50;;;;;;;7.17;5.12;;;;;;;22.10;42.12;101124.33;1744065;80;21287;-65
2021/03/25 09:03:33;;;;;;;8.30;5.40;;;;;;;22.12;42.08;101119.83;1751865;79;21269;-66
2021/03/25 09:06:22;;;;;;;6.47;4.80;;;;;;;22.11;42.02;101122.34;1752414;80;21177;-66
2021/03/25 09:08:51;;;;;;;6.62;4.78;;;;;;;22.08;41.99;101116.89;1749804;79;21065;-66
2021/03/25 09:11:18;;;;;;;7.43;5.10;;;;;;;22.06;42.00;101123.91;1750070;80;21213;-66
2021/03/25 09:13:57;;;;;;;6.60;4.85;;;;;;;22.07;42.02;101119.97;1804229;77;21190;-66
2021/03/25 09:16:31;;;;;;;6.50;4.70;;;;;;;22.09;42.03;101122.69;1806806;77;21303;-65
2021/03/25 09:18:58;;;;;;;6.33;4.78;;;;;;;22.12;41.97;101121.22;1804077;77;21250;-66
2021/03/25 09:21:28;;;;;;;6.78;5.12;;;;;;;22.11;41.94;101117.63;1745851;80;21246;-66
2021/03/25 09:24:08;;;;;;;8.33;5.03;;;;;;;22.10;41.91;101117.97;1771430;79;21237;-65
2021/03/25 09:26:45;;;;;;;6.67;4.72;;;;;;;22.08;41.93;101120.23;1754232;79;22254;-66
2021/03/25 09:29:12;;;;;;;5.95;4.20;;;;;;;22.09;41.96;101119.09;1747328;80;21223;-67
2021/03/25 09:32:00;;;;;;;6.85;4.47;;;;;;;22.11;41.94;101107.93;1760859;79;21161;-66
2021/03/25 09:34:48;;;;;;;4.95;4.05;;;;;;;22.13;41.89;101107.05;1758532;79;21185;-68
2021/03/25 09:37:20;;;;;;;6.50;4.70;;;;;;;22.12;41.88;101112.34;1757387;79;21192;-68
2021/03/25 09:40:07;;;;;;;7.05;4.30;;;;;;;22.10;41.85;101104.11;1745863;80;21204;-67
2021/03/25 09:42:34;;;;;;;6.42;4.33;;;;;;;22.09;41.88;101105.24;1728536;79;21609;-66
2021/03/25 09:45:16;;;;;;;5.28;4.40;;;;;;;22.10;41.89;101101.34;1803369;77;21142;-66
2021/03/25 09:47:45;;;;;;;5.75;4.47;;;;;;;22.11;41.88;101109.31;1783364;77;21609;-67
2021/03/25 09:50:21;;;;;;;6.53;4.78;;;;;;;22.11;41.83;101105.16;1753051;79;21597;-66
2021/03/25 09:53:11;;;;;;;5.58;4.35;;;;;;;22.10;41.81;101101.34;1806190;77;21622;-66
2021/03/25 09:55:40;;;;;;;6.35;4.45;;;;;;;22.08;41.83;101101.65;1806526;77;21238;-67
2021/03/25 09:58:28;;;;;;;5.45;4.20;;;;;;;22.07;41.86;101099.19;1777967;77;21162;-66
2021/03/25 10:01:17;;;;;;;6.42;4.67;;;;;;;22.08;41.86;101097.49;1803875;77;21196;-67
2021/03/25 10:04:00;;;;;;;5.60;4.25;;;;;;;22.11;41.85;101107.11;1761108;79;21221;-67
2021/03/25 10:06:48;;;;;;;6.55;4.37;;;;;;;22.12;41.81;101100.44;1765497;79;21221;-66
2021/03/25 10:09:14;;;;;;;4.85;3.92;;;;;;;22.10;41.78;101105.50;1765385;79;21200;-65
2021/03/25 10:11:52;;;;;;;5.53;4.10;;;;;;;22.08;41.80;101109.96;1738751;81;21233;-66
2021/03/25 10:14:51;;;;;;;5.20;3.87;;;;;;;22.08;41.83;101100.27;1764088;79;21517;-65
2021/03/25 10:17:44;;;;;;;6.05;3.87;;;;;;;22.10;41.83;101106.88;1767180;79;21194;-65
2021/03/25 10:20:13;;;;;;;5.50;4.08;;;;;;;22.10;41.81;101108.27;1761560;79;21230;-66
2021/03/25 10:22:40;;;;;;;4.40;3.90;;;;;;;22.06;41.79;101108.09;1766733;79;21229;-66
2021/03/25 10:25:08;;;;;;;6.35;3.90;;;;;;;22.04;41.84;101105.38;1723089;80;21900;-66
2021/03/25 10:27:41;;;;;;;4.83;3.72;;;;;;;22.03;41.88;101117.59;1761869;79;21610;-65
2021/03/25 10:30:25;;;;;;;6.22;4.22;;;;;;;22.07;41.89;101126.90;1765108;79;21261;-64
2021/03/25 10:32:52;;;;;;;5.40;3.67;;;;;;;22.12;41.87;101122.61;1734459;81;21188;-65
2021/03/25 10:35:23;;;;;;;6.00;3.75;;;;;;;22.18;41.83;101111.63;1734739;81;21669;-65
2021/03/25 10:38:12;;;;;;;5.50;4.03;;;;;;;22.21;41.77;101120.12;1764470;79;21669;-65
2021/03/25 10:40:41;;;;;;;4.92;3.15;;;;;;;22.22;41.77;101115.40;1719871;81;21215;-64
2021/03/25 10:43:28;;;;;;;5.80;3.27;;;;;;;22.23;41.80;101124.79;1713072;82;21173;-65
2021/03/25 10:45:58;;;;;;;4.62;3.40;;;;;;;22.29;41.80;101124.05;1711969;82;21199;-65
2021/03/25 10:48:44;;;;;;;4.90;3.30;;;;;;;22.34;41.76;101126.69;1713890;82;22007;-65
2021/03/25 10:51:16;;;;;;;4.53;3.40;;;;;;;22.37;41.71;101127.41;1685650;82;21219;-66
2021/03/25 10:53:52;;;;;;;4.03;3.27;;;;;;;22.37;41.69;101124.64;1715860;82;21283;-65
2021/03/25 10:56:24;;;;;;;4.15;2.58;;;;;;;22.38;41.70;101132.39;1714119;82;21216;-66
2021/03/25 10:59:08;;;;;;;4.33;3.15;;;;;;;22.40;41.74;101128.18;1721953;82;21240;-66
2021/03/25 11:01:35;;;;;;;5.28;3.30;;;;;;;22.44;41.72;101120.85;1715690;82;21223;-66
2021/03/25 11:04:21;;;;;;;4.97;3.33;;;;;;;22.47;41.66;101120.77;1719964;81;21111;-66
2021/03/25 11:06:49;;;;;;;4.00;3.10;;;;;;;22.46;41.66;101126.05;1722662;82;21630;-66
2021/03/25 11:09:30;;;;;;;4.87;2.72;;;;;;;22.45;41.68;101115.53;1725141;81;21657;-66
2021/03/25 11:12:26;;;;;;;4.17;3.40;;;;;;;22.48;41.70;101114.09;1716097;81;21229;-66
2021/03/25 11:14:59;;;;;;;4.78;3.12;;;;;;;22.51;41.68;101111.48;1746810;80;21569;-65
2021/03/25 11:17:35;;;;;;;4.20;3.20;;;;;;;22.55;41.63;101114.42;1746331;80;21186;-66
2021/03/25 11:20:06;;;;;;;4.40;3.22;;;;;;;22.54;41.59;101106.66;1747149;80;21759;-66
2021/03/25 11:22:33;;;;;;;3.95;2.95;;;;;;;22.54;41.59;101116.37;1743900;80;21225;-66
2021/03/25 11:25:05;;;;;;;3.30;2.70;;;;;;;22.56;41.60;101117.45;1747617;80;21184;-66
2021/03/25 11:27:32;;;;;;;3.75;2.80;;;;;;;22.58;41.59;101110.98;1755022;80;22137;-66
2021/03/25 11:30:25;;;;;;;4.72;3.50;;;;;;;22.65;41.57;101105.23;1745815;80;21379;-66
2021/03/25 11:32:51;;;;;;;4.17;2.90;;;;;;;22.69;41.49;101104.04;1739841;80;21174;-66
2021/03/25 11:35:26;;;;;;;4.10;3.40;;;;;;;22.67;41.44;101107.09;1744187;80;21198;-66
2021/03/25 11:37:53;;;;;;;3.98;2.83;;;;;;;22.67;41.43;101102.94;1747696;80;21212;-66
2021/03/25 11:40:28;;;;;;;4.22;2.98;;;;;;;22.67;41.42;101107.66;1747323;80;21599;-66
2021/03/25 11:43:08;;;;;;;3.55;2.67;;;;;;;22.69;41.43;101109.02;1740591;80;21204;-66
2021/03/25 11:45:49;;;;;;;3.27;2.70;;;;;;;22.74;41.36;101113.00;1741230;80;21191;-66
2021/03/25 11:48:26;;;;;;;3.80;2.72;;;;;;;22.76;41.32;101119.62;1750386;80;21457;-65
2021/03/25 11:51:19;;;;;;;2.80;2.40;;;;;;;22.74;41.28;101117.76;1744742;80;21653;-66
2021/03/25 11:53:53;;;;;;;2.75;2.22;;;;;;;22.72;41.28;101127.78;1746966;80;21615;-65
2021/03/25 11:56:38;;;;;;;3.17;2.25;;;;;;;22.73;41.29;101123.88;1752256;80;21206;-66
2021/03/25 11:59:25;;;;;;;2.85;2.45;;;;;;;22.76;41.28;101128.77;1749251;80;21126;-67
2021/03/25 12:02:21;;;;;;;2.92;2.60;;;;;;;22.81;41.24;101127.79;1752410;80;21218;-66
2021/03/25 12:04:49;;;;;;;3.92;3.10;;;;;;;22.83;41.17;101132.42;1677776;84;21228;-66
2021/03/25 12:07:21;;;;;;;4.75;2.47;;;;;;;22.81;41.17;101126.97;1699300;82;21292;-66
2021/03/25 12:10:21;;;;;;;3.12;2.50;;;;;;;22.82;41.17;101128.05;1720564;82;21588;-66
2021/03/25 12:12:48;;;;;;;2.83;2.42;;;;;;;22.85;41.18;101121.02;1727919;82;21208;-66
2021/03/25 12:15:16;;;;;;;3.10;2.70;;;;;;;22.91;41.15;101119.16;1722467;82;21216;-66